Latest Weather Observations for Williamtown

IDN60801

Issued at 6:05 pm EST Thursday 24 July 2014 (issued every 30 minutes, with the page automatically refreshed every 10 minutes)

About weather observations | Map of weather stations | Latest weather observations for NSW | Other Formats
Station Details ID: 061078 Name: WILLIAMTOWN RAAF Lat: -32.79 Lon: 151.84 Height: 9.0 m
Data from the previous 72 hours. | See also: Recent months at Williamtown
Date/Time
EST
Temp
°C
App
Temp
°C
Dew
Point
Rel
Hum
%
Delta-T
°C
Wind Press
QNH
hPa
Press
MSL
hPa
Rain
since 9 am
mm
Dir
 
Spd
km/h
Gust
km/h
Spd
kts
Gust
kts
24/06:00pm 13.6 14.0 11.3 86 1.2 ESE 0 0 0 0 1020.2 - 0.0
24/05:30pm 14.8 13.5 11.4 80 1.8 E 9 9 5 5 1020.0 - 0.0
24/05:00pm 14.8 15.4 12.0 83 1.5 CALM 0 6 0 3 1020.0 - 0.0
24/04:30pm 15.4 15.9 11.7 78 2.0 CALM 0 0 0 0 1020.0 - 0.0
24/04:00pm 15.6 14.6 11.1 74 2.4 NNE 7 9 4 5 1019.9 - 0.0
24/03:30pm 15.8 14.6 10.3 70 2.9 N 7 9 4 5 1020.0 - 0.0
24/03:00pm 15.8 14.5 10.1 69 3.0 N 7 11 4 6 1020.0 1020.1 0.0
24/02:30pm 15.9 14.1 9.5 66 3.3 NW 9 11 5 6 1020.2 - 0.0
24/02:00pm 16.1 14.4 9.8 66 3.3 NNW 9 13 5 7 1020.3 - 0.0
24/01:30pm 15.8 13.7 9.8 67 3.1 WNW 11 15 6 8 1020.6 - 0.0
24/01:00pm 15.0 12.5 9.6 70 2.8 WNW 13 15 7 8 1020.9 - 0.0
24/12:30pm 14.6 12.0 9.3 70 2.7 NW 13 17 7 9 1021.1 - 0.0
24/12:00pm 14.5 12.2 9.0 69 2.8 NNW 11 15 6 8 1021.7 1021.8 0.0
24/11:30am 14.1 11.1 9.2 72 2.5 NNW 15 19 8 10 1022.1 - 0.0
24/11:00am 12.7 9.6 8.9 78 1.9 NW 15 19 8 10 1022.8 - 0.0
24/10:30am 11.8 9.8 8.8 82 1.5 NW 9 17 5 9 1023.0 - 0.0
24/10:00am 11.0 8.1 8.3 83 1.3 NW 13 15 7 8 1023.0 - 0.0
24/09:30am 10.7 8.3 8.7 87 1.0 NW 11 15 6 8 1023.0 - 0.0
24/09:00am 9.3 6.5 8.5 95 0.4 WNW 13 17 7 9 1022.9 1023.0 0.0
24/08:30am 7.8 5.5 7.4 97 0.2 NW 9 11 5 6 1022.6 - 0.0
24/08:00am 7.2 4.7 6.5 95 0.3 WNW 9 13 5 7 1022.1 - 0.0
24/07:30am 4.4 3.1 3.9 97 0.2 CALM 0 0 0 0 1021.8 - 0.0
24/07:19am 4.5 3.2 4.0 97 0.2 CALM 0 0 0 0 1021.7 - 0.0
24/07:00am 4.1 2.7 3.4 95 0.3 CALM 0 0 0 0 1021.5 - 0.0
24/06:30am 4.0 2.6 3.3 95 0.3 CALM 0 0 0 0 1021.4 - 0.0
24/06:00am 5.0 3.8 4.5 97 0.2 NW 0 0 0 0 1021.2 1021.3 0.0
24/05:30am 4.9 3.7 4.4 97 0.2 CALM 0 0 0 0 1020.9 - 0.0
24/05:00am 4.7 3.4 4.2 97 0.2 CALM 0 0 0 0 1020.7 - 0.0
24/04:30am 4.6 3.4 4.4 99 0.1 CALM 0 0 0 0 1020.7 - 0.0
24/04:00am 4.7 3.4 4.0 95 0.3 CALM 0 0 0 0 1020.8 - 0.0
24/03:30am 4.8 3.6 4.6 99 0.1 CALM 0 0 0 0 1020.8 - 0.0
24/03:00am 5.1 3.9 4.6 97 0.2 CALM 0 0 0 0 1021.2 1021.3 0.0
24/02:30am 5.2 4.0 4.7 97 0.2 CALM 0 0 0 0 1021.3 - 0.0
24/02:00am 5.7 4.6 5.2 97 0.2 CALM 0 0 0 0 1021.3 - 0.0
24/01:30am 6.5 5.5 5.8 95 0.3 CALM 0 0 0 0 1021.7 - 0.0
24/01:00am 6.6 5.7 5.9 95 0.3 CALM 0 0 0 0 1021.9 - 0.0
24/12:30am 6.7 5.9 6.3 97 0.2 CALM 0 0 0 0 1022.3 - 0.0
24/12:00am 7.0 6.2 6.6 97 0.2 NE 0 0 0 0 1022.4 1022.5 0.0
 
Date/Time
EST
Temp
°C
App
Temp
°C
Dew
Point
Rel
Hum
%
Delta-T
°C
Wind Press
QNH
hPa
Press
MSL
hPa
Rain
since 9 am
mm
Dir
 
Spd
km/h
Gust
km/h
Spd
kts
Gust
kts
23/11:30pm 7.0 6.2 6.3 95 0.3 CALM 0 0 0 0 1022.6 - 0.0
23/11:00pm 7.0 6.2 6.3 95 0.3 CALM 0 0 0 0 1022.7 - 0.0
23/10:30pm 6.9 6.1 6.7 99 0.1 CALM 0 0 0 0 1023.0 - 0.0
23/10:00pm 8.0 7.3 7.1 94 0.4 CALM 0 0 0 0 1023.0 - 0.0
23/09:30pm 8.7 8.3 8.1 96 0.3 CALM 0 0 0 0 1023.1 - 0.0
23/09:00pm 8.8 8.4 8.4 97 0.2 CALM 0 0 0 0 1023.3 1023.4 0.0
23/08:30pm 9.6 9.3 8.6 93 0.5 CALM 0 0 0 0 1023.1 - 0.0
23/08:00pm 9.5 7.9 8.7 95 0.4 NE 7 9 4 5 1022.9 - 0.0
23/07:30pm 10.1 9.9 8.9 92 0.6 CALM 0 0 0 0 1022.7 - 0.0
23/07:00pm 10.0 9.8 9.0 93 0.5 CALM 0 0 0 0 1022.6 - 0.0
23/06:30pm 10.7 9.2 9.3 91 0.7 ENE 7 9 4 5 1022.6 - 0.0
23/06:00pm 11.8 10.1 9.8 87 1.0 E 9 11 5 6 1022.5 1022.6 0.0
23/05:30pm 12.2 10.7 9.2 82 1.5 ESE 7 9 4 5 1022.4 - 0.0
23/05:00pm 14.0 12.3 9.7 75 2.2 ESE 9 11 5 6 1022.0 - 0.0
23/04:30pm 15.1 12.9 9.5 69 2.9 ESE 11 13 6 7 1021.8 - 0.0
23/04:00pm 15.7 13.5 9.5 66 3.2 ESE 11 15 6 8 1021.6 - 0.0
23/03:30pm 15.7 13.1 9.5 66 3.2 SE 13 15 7 8 1021.7 - 0.0
23/03:00pm 16.0 13.3 9.0 63 3.6 SE 13 17 7 9 1021.6 1021.7 0.0
23/02:30pm 16.9 14.2 8.9 59 4.1 SE 13 17 7 9 1021.7 - 0.0
23/02:00pm 15.9 13.2 8.8 62 3.6 S 13 17 7 9 1022.0 - 0.0
23/01:30pm 16.3 13.9 8.6 60 3.9 S 11 19 6 10 1022.3 - 0.0
23/01:00pm 16.2 14.3 9.0 62 3.7 S 9 13 5 7 1022.6 - 0.0
23/12:30pm 17.1 14.9 9.2 59 4.1 S 11 19 6 10 1023.1 - 0.0
23/12:00pm 15.7 14.4 9.9 68 3.0 SSW 7 9 4 5 1023.8 1023.9 0.0
23/11:30am 16.8 15.3 10.4 66 3.4 NNW 9 11 5 6 1024.7 - 0.0
23/11:00am 15.5 14.1 9.7 68 3.0 WSW 7 13 4 7 1025.0 - 0.0
23/10:30am 14.7 12.6 9.6 71 2.6 WNW 11 15 6 8 1025.4 - 0.0
23/10:00am 13.3 10.7 9.3 77 2.0 NW 13 15 7 8 1025.4 - 0.0
23/09:30am 11.9 9.3 9.3 84 1.3 WNW 13 15 7 8 1025.4 - 0.0
23/09:00am 10.5 6.6 8.7 89 0.9 WNW 19 22 10 12 1025.4 1025.5 0.0
23/08:30am 9.4 6.6 8.4 93 0.5 WNW 13 19 7 10 1025.2 - 0.0
23/08:00am 8.0 4.1 7.1 94 0.4 WNW 17 20 9 11 1025.0 - 0.0
23/07:30am 7.3 3.7 6.9 97 0.2 NW 15 17 8 9 1024.5 - 0.0
23/07:00am 6.2 3.1 5.7 97 0.2 NW 11 15 6 8 1024.0 - 0.0
23/06:30am 6.1 3.5 5.9 99 0.1 WNW 9 11 5 6 1023.8 - 0.0
23/06:00am 6.6 3.3 6.2 97 0.2 NW 13 15 7 8 1023.7 1023.8 0.0
23/05:30am 6.9 3.6 6.5 97 0.2 NW 13 17 7 9 1023.5 - 0.0
23/05:27am 6.9 3.3 6.7 99 0.1 NW 15 17 8 9 1023.4 - 0.0
23/05:00am 6.8 3.5 6.6 99 0.1 WNW 13 15 7 8 1023.1 - 0.0
23/04:56am 6.7 3.8 6.3 97 0.2 WNW 11 13 6 7 1023.0 - 0.0
23/04:30am 6.9 3.6 6.5 97 0.2 WNW 13 13 7 7 1022.8 - 0.0
23/04:00am 7.0 4.2 6.8 99 0.1 NW 11 13 6 7 1022.8 - 0.0
23/03:30am 7.2 4.0 6.8 97 0.2 NW 13 15 7 8 1023.1 - 0.0
23/03:00am 7.3 4.1 6.9 97 0.2 NW 13 15 7 8 1023.4 1023.5 0.0
23/02:30am 7.3 4.1 6.9 97 0.2 WNW 13 15 7 8 1023.3 - 0.0
23/02:00am 7.5 5.2 7.3 99 0.1 WNW 9 11 5 6 1023.3 - 0.0
23/01:30am 8.2 5.6 7.8 97 0.2 NW 11 11 6 6 1023.4 - 0.0
23/01:00am 8.3 5.3 7.9 97 0.2 NW 13 15 7 8 1023.5 - 0.0
23/12:30am 8.3 5.3 7.9 97 0.2 NNW 13 15 7 8 1023.5 - 0.0
23/12:12am 7.1 4.7 6.9 99 0.1 NW 9 11 5 6 1023.5 - 0.0
23/12:02am 7.0 4.5 6.6 97 0.2 WNW 9 9 5 5 1023.6 - 0.0
23/12:00am 7.0 4.5 6.6 97 0.2 WNW 9 9 5 5 1023.6 1023.7 0.0
 
Date/Time
EST
Temp
°C
App
Temp
°C
Dew
Point
Rel
Hum
%
Delta-T
°C
Wind Press
QNH
hPa
Press
MSL
hPa
Rain
since 9 am
mm
Dir
 
Spd
km/h
Gust
km/h
Spd
kts
Gust
kts
22/11:30pm 7.2 5.4 7.0 99 0.1 W 6 7 3 4 1023.8 - 0.0
22/11:16pm 7.5 6.8 6.8 95 0.3 CALM 0 6 0 3 1023.7 - 0.0
22/11:13pm 7.2 6.0 6.5 95 0.3 WSW 2 7 1 4 1023.7 - 0.0
22/11:09pm 6.9 5.0 6.5 97 0.2 WSW 6 7 3 4 1023.7 - 0.0
22/11:00pm 6.5 4.2 5.8 95 0.3 WSW 7 9 4 5 1023.7 - 0.0
22/10:49pm 6.4 3.7 5.7 95 0.3 W 9 11 5 6 1023.7 - 0.0
22/10:30pm 7.6 6.5 6.9 95 0.3 NNW 2 9 1 5 1023.7 - 0.0
22/10:00pm 7.3 5.4 6.9 97 0.2 NNW 6 7 3 4 1023.7 - 0.0
22/09:30pm 8.1 6.1 7.2 94 0.4 NW 7 9 4 5 1023.9 - 0.0
22/09:00pm 8.7 7.0 8.3 97 0.2 NW 7 9 4 5 1024.0 1024.1 0.0
22/08:30pm 8.6 6.1 8.2 97 0.2 NNW 11 11 6 6 1024.0 - 0.0
22/08:00pm 8.7 6.6 8.3 97 0.2 NNW 9 9 5 5 1024.0 - 0.0
22/07:30pm 8.9 7.4 8.3 96 0.3 NW 6 9 3 5 1023.9 - 0.0
22/07:00pm 9.3 8.8 8.0 92 0.6 CALM 0 0 0 0 1023.7 - 0.0
22/06:30pm 10.4 10.1 8.8 90 0.8 CALM 0 0 0 0 1023.5 - 0.0
22/06:00pm 11.8 11.4 9.6 86 1.1 SE 2 6 1 3 1023.2 1023.3 0.0
22/05:30pm 13.0 11.6 9.4 79 1.8 S 7 9 4 5 1022.9 - 0.0
22/05:00pm 14.8 12.8 10.0 73 2.5 SSE 11 15 6 8 1022.5 - 0.0
22/04:30pm 16.0 13.7 10.3 69 3.0 SSE 13 19 7 10 1022.4 - 0.0
22/04:00pm 15.8 13.2 10.7 71 2.7 S 15 20 8 11 1022.4 - 0.0
22/03:30pm 16.1 13.0 10.4 69 3.0 S 17 22 9 12 1022.3 - 0.0
22/03:00pm 17.1 13.4 10.1 63 3.7 SSE 20 28 11 15 1022.0 1022.1 0.0
22/02:30pm 17.1 13.1 9.2 59 4.1 S 20 26 11 14 1021.9 - 0.0
22/02:00pm 16.6 12.2 8.8 60 4.0 S 22 28 12 15 1021.9 - 0.0
22/01:30pm 17.1 12.1 8.0 55 4.6 SSE 24 30 13 16 1021.8 - 0.0
22/01:00pm 16.6 11.9 9.2 61 3.8 S 24 30 13 16 1022.1 - 0.0
22/12:30pm 17.2 13.9 9.7 61 3.9 SSW 17 26 9 14 1022.2 - 0.0
22/12:00pm 16.8 13.7 10.4 66 3.4 SSW 17 20 9 11 1022.7 1022.8 0.0
22/11:30am 15.9 12.6 10.8 71 2.7 S 19 28 10 15 1023.4 - 0.0
22/11:00am 15.8 13.5 10.5 71 2.8 SSW 13 19 7 10 1023.9 - 0.0
22/10:30am 15.2 12.9 10.6 74 2.4 SSW 13 15 7 8 1024.3 - 0.0
22/10:00am 14.1 12.7 10.9 81 1.7 WSW 9 13 5 7 1024.5 - 0.0
22/09:30am 13.6 12.3 11.1 85 1.3 WNW 9 11 5 6 1024.4 - 0.0
22/09:00am 12.2 10.0 10.8 91 0.7 WNW 13 15 7 8 1024.3 1024.4 0.4
22/08:30am 10.8 9.1 10.0 95 0.4 WNW 9 11 5 6 1024.5 - 0.4
22/08:01am 9.3 7.7 8.9 97 0.2 N 7 15 4 8 1024.3 - 0.4
22/07:30am 8.4 6.2 8.0 97 0.2 NW 9 13 5 7 1023.8 - 0.4
22/07:00am 8.5 6.0 8.1 97 0.2 NW 11 13 6 7 1023.5 - 0.4
22/06:30am 8.5 5.6 8.1 97 0.2 WNW 13 13 7 7 1023.2 - 0.2
22/06:00am 8.7 6.3 8.5 99 0.1 NW 11 13 6 7 1023.1 1023.2 0.2
22/05:30am 8.8 6.7 8.4 97 0.2 WNW 9 11 5 6 1023.0 - 0.2
22/05:00am 9.6 7.7 9.2 97 0.2 WNW 9 15 5 8 1022.7 - 0.2
22/04:30am 9.6 7.7 9.2 97 0.2 NW 9 11 5 6 1022.6 - 0.2
22/04:00am 9.5 6.8 9.1 97 0.2 NW 13 15 7 8 1022.5 - 0.2
22/03:30am 9.2 6.9 9.0 99 0.1 NW 11 13 6 7 1022.4 - 0.2
22/03:00am 9.4 8.9 9.2 99 0.1 NW 2 9 1 5 1022.6 1022.7 0.2
22/02:30am 9.3 7.0 9.1 99 0.1 WNW 11 11 6 6 1022.8 - 0.2
22/02:25am 9.4 7.5 9.0 97 0.2 WNW 9 11 5 6 1022.8 - 0.2
22/02:00am 9.1 7.1 8.7 97 0.2 WNW 9 11 5 6 1022.9 - 0.2
22/01:30am 9.0 7.0 8.6 97 0.2 WNW 9 11 5 6 1023.0 - 0.2
22/01:21am 8.7 6.7 8.5 99 0.1 NW 9 13 5 7 1023.0 - 0.2
22/01:00am 9.3 7.4 8.9 97 0.2 NW 9 13 5 7 1023.1 - 0.2
22/12:30am 9.2 6.8 8.8 97 0.2 WNW 11 13 6 7 1023.2 - 0.2
22/12:00am 9.2 7.2 8.8 97 0.2 NW 9 11 5 6 1023.3 1023.4 0.2
 
Date/Time
EST
Temp
°C
App
Temp
°C
Dew
Point
Rel
Hum
%
Delta-T
°C
Wind Press
QNH
hPa
Press
MSL
hPa
Rain
since 9 am
mm
Dir
 
Spd
km/h
Gust
km/h
Spd
kts
Gust
kts
21/11:30pm 9.6 8.1 9.2 97 0.2 WNW 7 9 4 5 1023.5 - 0.2
21/11:00pm 9.0 6.9 8.4 96 0.3 NW 9 9 5 5 1023.7 - 0.2
21/10:30pm 9.9 8.0 8.9 93 0.5 NW 9 9 5 5 1023.7 - 0.2
21/10:00pm 9.9 8.6 9.3 96 0.3 WNW 6 7 3 4 1023.8 - 0.2
21/09:30pm 10.1 8.8 9.3 95 0.4 WNW 6 7 3 4 1023.9 - 0.2
21/09:00pm 10.7 9.6 9.9 95 0.4 W 6 7 3 4 1024.0 1024.1 0.2
21/08:30pm 10.8 9.8 10.2 96 0.3 WNW 6 7 3 4 1024.0 - 0.2
21/08:00pm 11.5 9.9 10.1 91 0.7 WNW 9 9 5 5 1024.0 - 0.2
21/07:30pm 11.2 9.6 10.2 94 0.5 NW 9 9 5 5 1023.9 - 0.2
21/07:00pm 11.3 10.0 10.1 92 0.6 NW 7 9 4 5 1023.7 - 0.2
21/06:30pm 11.0 11.0 9.8 92 0.6 CALM 0 4 0 2 1023.6 - 0.2

Other Formats:

Comma delimited format used in spreadsheet applications
http://www.bom.gov.au/fwo/IDN60801/IDN60801.94776.axf

JavaScript Object Notation format (JSON) in row-major order
http://www.bom.gov.au/fwo/IDN60801/IDN60801.94776.json